CheckWX is a tool to help pilots better visualize weather data.  It is not intended as a substitute for an official pre-flight weather briefing.

08:59:49 UTC

KSEM METAR
Craig Field Airport
Selma, Alabama, USA
Current

25 mins ago

KSEM 190835Z AUTO 13004KT 9SM 16/15 A2995 RMK AO2
Observed
May-19 @ 08:35 UTC
Wind
  • 130° at 4 KTS
Visibility
9 SM
Temperature
16°C / 61°F
Dewpoint
15°C / 59°F
Humidity
94%
Altimeter
29.95" Hg
Pressure
1014.22 hPa
Previous

45 mins ago

KSEM 190815Z AUTO 14004KT 10SM 17/16 A2995 RMK AO2
Observed
May-19 @ 08:15 UTC
Wind
  • 140° at 4 KTS
Visibility
10 SM
Temperature
17°C / 63°F
Dewpoint
16°C / 61°F
Humidity
94%
Altimeter
29.95" Hg
Pressure
1014.22 hPa
Previous

1 hour ago

KSEM 190755Z AUTO 00000KT 10SM 19/16 A2995 RMK AO2
Observed
May-19 @ 07:55 UTC
Visibility
10 SM
Temperature
19°C / 66°F
Dewpoint
16°C / 61°F
Humidity
83%
Altimeter
29.95" Hg
Pressure
1014.22 hPa